createdAt,value
2018-05-02T00:01:59.124Z,101161.88
2018-05-02T00:04:25.508Z,101166.23
2018-05-02T00:06:51.411Z,101176.20
2018-05-02T00:09:17.259Z,101186.19
2018-05-02T00:11:43.116Z,101177.51
2018-05-02T00:14:09.015Z,101186.62
2018-05-02T00:16:34.895Z,101180.49
2018-05-02T00:19:00.846Z,101169.57
2018-05-02T00:21:26.751Z,101184.32
2018-05-02T00:23:52.610Z,101182.99
2018-05-02T00:26:18.458Z,101182.95
2018-05-02T00:28:44.336Z,101175.55
2018-05-02T00:31:10.175Z,101172.53
2018-05-02T00:33:36.032Z,101171.66
2018-05-02T00:36:01.932Z,101167.73
2018-05-02T00:38:27.829Z,101162.03
2018-05-02T00:40:53.683Z,101172.45
2018-05-02T00:43:19.587Z,101173.76
2018-05-02T00:45:45.502Z,101178.09
2018-05-02T00:48:11.348Z,101176.73
2018-05-02T00:50:37.244Z,101181.11
2018-05-02T00:53:03.103Z,101183.21
2018-05-02T00:55:28.968Z,101182.32
2018-05-02T00:57:54.862Z,101179.33
2018-05-02T01:00:20.737Z,101181.08
2018-05-02T01:02:46.615Z,101184.55
2018-05-02T01:05:12.517Z,101182.75
2018-05-02T01:07:38.370Z,101182.70
2018-05-02T01:10:04.244Z,101185.73
2018-05-02T01:12:30.156Z,101190.92
2018-05-02T01:14:56.002Z,101199.20
2018-05-02T01:17:21.855Z,101193.58
2018-05-02T01:19:47.754Z,101203.04
2018-05-02T01:22:13.642Z,101196.09
2018-05-02T01:24:39.494Z,101191.23
2018-05-02T01:27:05.404Z,101196.45
2018-05-02T01:29:31.277Z,101204.22
2018-05-02T01:31:57.145Z,101207.61
2018-05-02T01:34:23.047Z,101209.81
2018-05-02T01:36:48.903Z,101208.88
2018-05-02T01:39:14.767Z,101220.18
2018-05-02T01:41:40.650Z,101219.74
2018-05-02T01:44:06.531Z,101219.71
2018-05-02T01:46:32.434Z,101218.86
2018-05-02T01:49:10.733Z,101221.91
2018-05-02T01:51:36.638Z,101220.08
2018-05-02T01:54:02.502Z,101217.41
2018-05-02T01:56:28.397Z,101212.20
2018-05-02T01:58:54.234Z,101213.09
2018-05-02T02:01:20.079Z,101214.45
2018-05-02T02:03:46.004Z,101206.98
2018-05-02T02:06:11.858Z,101207.85
2018-05-02T02:08:37.716Z,101206.03
2018-05-02T02:11:03.606Z,101206.06
2018-05-02T02:13:29.464Z,101205.70
2018-05-02T02:15:55.322Z,101214.89
2018-05-02T02:18:21.223Z,101203.98
2018-05-02T02:20:47.077Z,101210.46
2018-05-02T02:23:12.938Z,101213.67
2018-05-02T02:25:38.838Z,101206.11
2018-05-02T02:28:04.720Z,101201.30
2018-05-02T02:30:30.639Z,101201.22
2018-05-02T02:32:56.573Z,101198.97
2018-05-02T02:35:22.427Z,101199.42
2018-05-02T02:37:48.274Z,101203.30
2018-05-02T02:40:14.212Z,101196.36
2018-05-02T02:42:40.059Z,101197.56
2018-05-02T02:45:05.909Z,101193.69
2018-05-02T02:47:31.867Z,101194.23
2018-05-02T02:49:57.857Z,101196.89
2018-05-02T02:52:23.703Z,101199.86
2018-05-02T02:54:49.614Z,101193.66
2018-05-02T02:57:15.463Z,101192.97
2018-05-02T02:59:41.310Z,101194.53
2018-05-02T03:02:07.225Z,101195.28
2018-05-02T03:04:33.131Z,101199.20
2018-05-02T03:06:58.983Z,101193.05
2018-05-02T03:09:24.872Z,101195.75
2018-05-02T03:11:50.739Z,101196.08
2018-05-02T03:14:16.617Z,101196.39
2018-05-02T03:16:42.523Z,101196.91
2018-05-02T03:19:08.367Z,101201.60
2018-05-02T03:21:34.244Z,101200.91
2018-05-02T03:24:00.143Z,101203.02
2018-05-02T03:26:25.987Z,101205.17
2018-05-02T03:28:51.839Z,101196.90
2018-05-02T03:31:17.743Z,101201.81
2018-05-02T03:33:43.595Z,101200.42
2018-05-02T03:36:09.440Z,101194.21
2018-05-02T03:38:35.345Z,101196.90
2018-05-02T03:41:01.200Z,101192.58
2018-05-02T03:43:27.069Z,101195.98
2018-05-02T03:45:52.972Z,101193.39
2018-05-02T03:48:18.878Z,101195.20
2018-05-02T03:50:44.844Z,101196.66
2018-05-02T03:53:10.982Z,101193.93
2018-05-02T03:55:36.842Z,101194.44
2018-05-02T03:58:02.799Z,101185.06
2018-05-02T04:03:50.896Z,101194.73
2018-05-02T04:06:29.034Z,101198.23
2018-05-02T04:08:54.902Z,101197.22
2018-05-02T04:11:20.780Z,101204.76
2018-05-02T04:13:46.683Z,101205.30
2018-05-02T04:16:12.534Z,101207.53
2018-05-02T04:18:38.394Z,101207.59
2018-05-02T04:21:04.303Z,101205.03
2018-05-02T04:23:30.145Z,101207.73
2018-05-02T04:25:56.131Z,101205.66
2018-05-02T04:28:22.007Z,101204.05
2018-05-02T04:30:47.854Z,101209.67
2018-05-02T04:33:13.694Z,101221.88
2018-05-02T04:35:39.571Z,101215.44
2018-05-02T04:38:05.434Z,101223.69
2018-05-02T04:40:31.294Z,101230.64
2018-05-02T04:42:57.219Z,101228.95
2018-05-02T04:45:23.089Z,101235.87
2018-05-02T04:47:48.943Z,101241.09
2018-05-02T04:50:14.920Z,101247.58
2018-05-02T04:52:40.801Z,101242.41
2018-05-02T04:55:06.691Z,101248.48
2018-05-02T04:57:32.591Z,101253.76
2018-05-02T04:59:58.488Z,101255.53
2018-05-02T05:02:24.371Z,101250.41
2018-05-02T05:04:50.255Z,101264.73
2018-05-02T05:07:16.116Z,101267.00
2018-05-02T05:09:41.976Z,101270.60
2018-05-02T05:12:07.921Z,101278.93
2018-05-02T05:14:33.768Z,101269.86
2018-05-02T05:16:59.806Z,101264.34
2018-05-02T05:19:25.712Z,101273.56
2018-05-02T05:21:51.567Z,101292.80
2018-05-02T05:24:17.518Z,101287.59
2018-05-02T05:26:43.436Z,101283.68
2018-05-02T05:29:09.295Z,101285.88
2018-05-02T05:31:35.152Z,101288.89
2018-05-02T05:34:01.052Z,101287.59
2018-05-02T05:36:26.907Z,101285.41
2018-05-02T05:38:52.751Z,101291.03
2018-05-02T05:41:18.655Z,101288.38
2018-05-02T05:43:44.501Z,101295.38
2018-05-02T05:46:10.347Z,101293.53
2018-05-02T05:48:36.288Z,101289.56
2018-05-02T05:51:02.196Z,101297.83
2018-05-02T05:53:28.065Z,101301.31
2018-05-02T05:55:53.975Z,101303.94
2018-05-02T05:58:19.823Z,101298.27
2018-05-02T06:00:45.701Z,101298.26
2018-05-02T06:03:11.674Z,101306.08
2018-05-02T06:05:37.511Z,101308.27
2018-05-02T06:08:03.444Z,101307.83
2018-05-02T06:10:29.407Z,101305.20
2018-05-02T06:12:55.267Z,101311.61
2018-05-02T06:15:21.114Z,101309.80
2018-05-02T06:17:46.998Z,101307.55
2018-05-02T06:20:13.363Z,101304.48
2018-05-02T06:22:39.774Z,101308.52
2018-05-02T06:25:06.241Z,101302.55
2018-05-02T06:27:32.151Z,101311.13
2018-05-02T06:29:58.122Z,101311.53
2018-05-02T06:32:24.408Z,101301.66
2018-05-02T06:34:50.298Z,101315.91
2018-05-02T06:37:16.178Z,101316.40
2018-05-02T06:39:42.139Z,101312.42
2018-05-02T06:42:08.048Z,101312.30
2018-05-02T06:44:33.897Z,101313.00
2018-05-02T06:46:59.779Z,101306.59
2018-05-02T06:49:25.664Z,101303.54
2018-05-02T06:51:51.673Z,101303.34
2018-05-02T06:54:17.572Z,101293.09
2018-05-02T06:56:43.437Z,101289.73
2018-05-02T06:59:09.326Z,101284.50
2018-05-02T07:01:35.215Z,101291.05
2018-05-02T07:04:01.127Z,101283.95
2018-05-02T07:06:26.983Z,101284.72
2018-05-02T07:08:52.871Z,101288.80
2018-05-02T07:11:18.717Z,101290.80
2018-05-02T07:13:44.560Z,101289.17
2018-05-02T07:16:10.495Z,101294.39
2018-05-02T07:18:36.348Z,101291.49
2018-05-02T07:21:02.221Z,101293.53
2018-05-02T07:23:28.190Z,101287.98
2018-05-02T07:25:54.039Z,101287.98
2018-05-02T07:28:19.897Z,101293.69
2018-05-02T07:30:45.774Z,101291.69
2018-05-02T07:33:11.653Z,101293.94
2018-05-02T07:35:37.515Z,101285.82
2018-05-02T07:38:03.423Z,101284.21
2018-05-02T07:40:29.289Z,101278.29
2018-05-02T07:42:55.143Z,101280.93
2018-05-02T07:45:21.035Z,101280.00
2018-05-02T07:47:46.892Z,101284.45
2018-05-02T07:50:12.753Z,101289.84
2018-05-02T07:52:38.662Z,101282.55
2018-05-02T07:55:04.588Z,101281.19
2018-05-02T07:57:30.545Z,101284.04
2018-05-02T07:59:56.453Z,101282.31
2018-05-02T08:02:22.307Z,101280.97
2018-05-02T08:04:48.169Z,101282.29
2018-05-02T08:07:14.171Z,101279.29
2018-05-02T08:09:40.011Z,101278.80
2018-05-02T08:12:05.880Z,101277.97
2018-05-02T08:14:31.776Z,101281.34
2018-05-02T08:16:57.620Z,101271.91
2018-05-02T08:19:23.563Z,101270.44
2018-05-02T08:21:49.471Z,101268.12
2018-05-02T08:24:15.593Z,101262.25
2018-05-02T08:26:41.487Z,101259.11
2018-05-02T08:29:07.369Z,101257.97
2018-05-02T08:31:33.286Z,101258.71
2018-05-02T08:33:59.134Z,101252.09
2018-05-02T08:36:25.057Z,101255.59
2018-05-02T08:38:50.916Z,101250.02
2018-05-02T08:41:16.770Z,101247.84
2018-05-02T08:43:42.772Z,101251.44
2018-05-02T08:46:08.647Z,101250.27
2018-05-02T08:48:34.496Z,101250.54
2018-05-02T08:51:00.395Z,101260.37
2018-05-02T08:53:26.243Z,101250.36
2018-05-02T08:55:52.179Z,101248.83
2018-05-02T08:58:18.071Z,101252.82
2018-05-02T09:00:43.915Z,101246.48
2018-05-02T09:03:09.776Z,101249.84
2018-05-02T09:05:35.795Z,101253.87
2018-05-02T09:08:01.790Z,101252.23
2018-05-02T09:10:27.647Z,101251.19
2018-05-02T09:12:53.564Z,101245.07
2018-05-02T09:15:19.411Z,101238.72
2018-05-02T09:17:45.296Z,101245.77
2018-05-02T09:20:11.308Z,101247.70
2018-05-02T09:22:37.177Z,101236.37
2018-05-02T09:25:03.054Z,101237.39
2018-05-02T09:27:28.947Z,101233.75
2018-05-02T09:29:54.786Z,101241.68
2018-05-02T09:32:20.734Z,101233.39
2018-05-02T09:34:46.638Z,101216.91
2018-05-02T09:37:12.501Z,101222.70
2018-05-02T09:39:38.353Z,101226.41
2018-05-02T09:42:04.639Z,101216.11
2018-05-02T09:44:30.564Z,101206.53
2018-05-02T09:46:56.427Z,101206.55
2018-05-02T09:49:22.318Z,101202.87
2018-05-02T09:51:48.163Z,101208.24
2018-05-02T09:54:14.027Z,101203.70
2018-05-02T09:56:39.993Z,101206.22
2018-05-02T09:59:05.869Z,101209.14
2018-05-02T10:01:31.740Z,101195.39
2018-05-02T10:03:57.676Z,101193.42
2018-05-02T10:06:23.548Z,101198.76
2018-05-02T10:08:49.487Z,101188.16
2018-05-02T10:11:15.388Z,101192.48
2018-05-02T10:13:41.254Z,101182.22
2018-05-02T10:16:07.102Z,101187.07
2018-05-02T10:18:33.160Z,101186.77
2018-05-02T10:20:59.036Z,101184.67
2018-05-02T10:23:24.947Z,101190.06
2018-05-02T10:25:50.846Z,101191.67
2018-05-02T10:28:16.698Z,101188.90
2018-05-02T10:30:42.590Z,101181.27
2018-05-02T10:33:08.575Z,101179.25
2018-05-02T10:35:34.427Z,101183.28
2018-05-02T10:38:00.388Z,101179.25
2018-05-02T10:40:26.287Z,101180.50
2018-05-02T10:42:52.135Z,101166.00
2018-05-02T10:45:18.064Z,101156.65
2018-05-02T10:47:43.986Z,101161.98
2018-05-02T10:50:09.861Z,101172.84
2018-05-02T10:52:35.715Z,101166.55
2018-05-02T10:55:01.620Z,101162.05
2018-05-02T10:57:27.563Z,101159.16
2018-05-02T10:59:53.444Z,101158.22
2018-05-02T11:02:19.339Z,101169.41
2018-05-02T11:04:45.200Z,101168.04
2018-05-02T11:07:11.066Z,101162.63
2018-05-02T11:09:37.002Z,101167.63
2018-05-02T11:12:02.871Z,101163.63
2018-05-02T11:14:28.976Z,101162.52
2018-05-02T11:16:55.148Z,101166.67
2018-05-02T11:19:21.174Z,101165.10
2018-05-02T11:21:47.038Z,101172.39
2018-05-02T11:24:12.968Z,101167.53
2018-05-02T11:26:38.823Z,101170.44
2018-05-02T11:29:04.961Z,101165.39
2018-05-02T11:31:30.917Z,101163.67
2018-05-02T11:33:56.763Z,101162.31
2018-05-02T11:36:22.632Z,101164.02
2018-05-02T11:38:48.537Z,101165.10
2018-05-02T11:41:14.459Z,101162.75
2018-05-02T11:43:40.306Z,101161.69
2018-05-02T11:46:06.220Z,101161.91
2018-05-02T11:48:32.524Z,101156.53
2018-05-02T11:50:58.402Z,101153.53
2018-05-02T11:53:24.298Z,101153.98
2018-05-02T11:55:50.163Z,101148.72
2018-05-02T11:58:16.093Z,101151.13
2018-05-02T12:00:42.011Z,101144.02
2018-05-02T12:03:07.944Z,101137.91
2018-05-02T12:05:33.935Z,101130.76
2018-05-02T12:07:59.858Z,101130.72
2018-05-02T12:10:25.935Z,101123.10
2018-05-02T12:12:51.833Z,101120.58
2018-05-02T12:15:17.749Z,101111.95
2018-05-02T12:17:43.609Z,101114.91
2018-05-02T12:20:09.552Z,101105.20
2018-05-02T12:22:35.627Z,101105.75
2018-05-02T12:25:01.536Z,101101.02
2018-05-02T12:27:27.504Z,101089.89
2018-05-02T12:29:53.412Z,101092.08
2018-05-02T12:32:19.456Z,101090.02
2018-05-02T12:34:45.396Z,101077.54
2018-05-02T12:37:11.485Z,101081.25
2018-05-02T12:39:37.358Z,101071.86
2018-05-02T12:42:03.226Z,101074.34
2018-05-02T12:44:29.158Z,101074.67
2018-05-02T12:46:55.114Z,101065.44
2018-05-02T12:49:20.963Z,101057.16
2018-05-02T12:51:47.572Z,101048.53
2018-05-02T12:54:13.431Z,101041.19
2018-05-02T12:56:39.291Z,101039.47
2018-05-02T12:59:05.247Z,101024.03
2018-05-02T13:01:31.111Z,101019.14
2018-05-02T13:03:56.980Z,101019.22
2018-05-02T13:06:22.864Z,101017.61
2018-05-02T13:08:48.743Z,101013.63
2018-05-02T13:11:14.643Z,101012.34
2018-05-02T13:13:40.556Z,101021.88
2018-05-02T13:16:06.418Z,101023.22
2018-05-02T13:18:32.297Z,101025.22
2018-05-02T13:20:58.453Z,101017.24
2018-05-02T13:23:24.424Z,101011.83
2018-05-02T13:25:50.195Z,100996.45
2018-05-02T13:28:16.100Z,100984.12
2018-05-02T13:30:42.087Z,100966.48
2018-05-02T13:33:08.086Z,100956.40
2018-05-02T13:35:34.366Z,100955.27
2018-05-02T13:38:00.246Z,100961.22
2018-05-02T13:40:26.106Z,100949.08
2018-05-02T13:42:52.078Z,100957.55
2018-05-02T13:45:17.979Z,100960.67
2018-05-02T13:47:43.849Z,100955.20
2018-05-02T13:50:09.735Z,100955.23
2018-05-02T13:52:35.592Z,100949.01
2018-05-02T13:55:01.454Z,100938.57
2018-05-02T13:57:27.704Z,100938.66
2018-05-02T13:59:53.604Z,100925.84
2018-05-02T14:02:19.464Z,100931.87
2018-05-02T14:04:45.492Z,100930.22
2018-05-02T14:07:11.493Z,100929.14
2018-05-02T14:09:37.412Z,100937.64
2018-05-02T14:12:03.350Z,100925.02
2018-05-02T14:14:29.246Z,100917.30
2018-05-02T14:16:55.103Z,100918.44
2018-05-02T14:19:21.019Z,100910.77
2018-05-02T14:21:46.866Z,100917.33
2018-05-02T14:24:12.816Z,100901.16
2018-05-02T14:26:38.666Z,100887.17
2018-05-02T14:29:04.523Z,100896.80
2018-05-02T14:31:30.370Z,100900.34
2018-05-02T14:33:56.330Z,100885.91
2018-05-02T14:36:22.194Z,100897.17
2018-05-02T14:38:48.048Z,100897.73
2018-05-02T14:41:13.978Z,100907.39
2018-05-02T14:43:39.831Z,100911.03
2018-05-02T14:46:05.686Z,100906.89
2018-05-02T14:48:31.966Z,100899.80
2018-05-02T14:50:57.906Z,100895.00
2018-05-02T14:53:23.759Z,100892.73
2018-05-02T14:55:49.655Z,100890.32
2018-05-02T14:58:15.507Z,100891.27
2018-05-02T15:00:41.431Z,100887.20
2018-05-02T15:03:07.350Z,100884.30
2018-05-02T15:05:33.222Z,100889.52
2018-05-02T15:07:59.084Z,100887.73
2018-05-02T15:10:25.062Z,100874.52
2018-05-02T15:12:51.015Z,100871.13
2018-05-02T15:15:16.863Z,100873.02
2018-05-02T15:17:43.070Z,100879.52
2018-05-02T15:20:08.957Z,100884.24
2018-05-02T15:22:34.802Z,100874.58
2018-05-02T15:25:00.794Z,100881.89
2018-05-02T15:27:26.664Z,100880.50
2018-05-02T15:29:52.527Z,100877.63
2018-05-02T15:32:18.423Z,100878.73
2018-05-02T15:34:44.287Z,100880.42
2018-05-02T15:37:10.215Z,100878.91
2018-05-02T15:39:36.102Z,100883.73
2018-05-02T15:42:01.962Z,100874.00
2018-05-02T15:44:27.811Z,100872.04
2018-05-02T15:46:53.715Z,100871.75
2018-05-02T15:49:19.702Z,100872.42
2018-05-02T15:51:45.566Z,100864.86
2018-05-02T15:54:11.463Z,100863.01
2018-05-02T15:56:37.307Z,100864.45
2018-05-02T15:59:03.176Z,100859.67
2018-05-02T16:01:29.071Z,100840.45
2018-05-02T16:03:54.935Z,100840.86
2018-05-02T16:06:20.805Z,100836.32
2018-05-02T16:08:46.697Z,100834.30
2018-05-02T16:11:12.552Z,100835.76
2018-05-02T16:13:38.423Z,100836.19
2018-05-02T16:16:04.324Z,100838.12
2018-05-02T16:18:30.235Z,100841.90
2018-05-02T16:20:56.150Z,100838.47
2018-05-02T16:23:22.055Z,100830.52
2018-05-02T16:25:47.906Z,100840.55
2018-05-02T16:28:13.780Z,100835.84
2018-05-02T16:30:39.695Z,100827.51
2018-05-02T16:33:05.559Z,100829.45
2018-05-02T16:35:31.422Z,100828.03
2018-05-02T16:37:57.328Z,100833.05
2018-05-02T16:40:23.178Z,100828.41
2018-05-02T16:42:49.057Z,100827.05
2018-05-02T16:45:14.952Z,100825.61
2018-05-02T16:47:40.797Z,100825.09
2018-05-02T16:50:06.720Z,100820.31
2018-05-02T16:52:32.735Z,100820.66
2018-05-02T16:54:58.587Z,100813.11
2018-05-02T16:57:24.454Z,100819.64
2018-05-02T16:59:50.371Z,100815.89
2018-05-02T17:02:16.228Z,100816.25
2018-05-02T17:04:42.163Z,100813.28
2018-05-02T17:07:08.082Z,100815.69
2018-05-02T17:09:33.931Z,100814.95
2018-05-02T17:11:59.882Z,100816.22
2018-05-02T17:14:25.796Z,100825.31
2018-05-02T17:16:51.690Z,100823.91
2018-05-02T17:19:17.533Z,100818.20
2018-05-02T17:21:43.439Z,100807.67
2018-05-02T17:24:09.304Z,100803.41
2018-05-02T17:26:35.202Z,100806.14
2018-05-02T17:29:01.124Z,100813.48
2018-05-02T17:31:27.005Z,100812.67
2018-05-02T17:33:52.856Z,100811.38
2018-05-02T17:36:18.751Z,100802.52
2018-05-02T17:38:44.620Z,100800.92
2018-05-02T17:41:10.480Z,100801.43
2018-05-02T17:43:36.380Z,100810.56
2018-05-02T17:46:02.240Z,100802.24
2018-05-02T17:48:28.092Z,100805.91
2018-05-02T17:50:54.043Z,100800.00
2018-05-02T17:53:19.918Z,100794.11
2018-05-02T17:55:45.924Z,100791.56
2018-05-02T17:58:11.823Z,100791.52
2018-05-02T18:00:37.691Z,100794.52
2018-05-02T18:03:03.595Z,100800.38
2018-05-02T18:05:29.772Z,100789.67
2018-05-02T18:07:55.612Z,100790.63
2018-05-02T18:10:21.561Z,100791.55
2018-05-02T18:12:47.415Z,100784.25
2018-05-02T18:15:13.267Z,100784.73
2018-05-02T18:17:39.115Z,100786.59
2018-05-02T18:20:05.054Z,100792.52
2018-05-02T18:22:30.925Z,100788.78
2018-05-02T18:24:56.894Z,100792.34
2018-05-02T18:27:22.804Z,100786.69
2018-05-02T18:29:48.671Z,100794.42
2018-05-02T18:32:14.537Z,100793.58
2018-05-02T18:34:40.431Z,100785.89
2018-05-02T18:37:06.292Z,100783.95
2018-05-02T18:39:32.138Z,100785.83
2018-05-02T18:41:58.130Z,100784.77
2018-05-02T18:44:23.931Z,100780.11
2018-05-02T18:46:49.869Z,100786.91
2018-05-02T18:49:15.761Z,100789.87
2018-05-02T18:51:41.658Z,100781.13
2018-05-02T18:54:07.503Z,100780.11
2018-05-02T18:56:33.413Z,100774.64
2018-05-02T18:58:59.278Z,100764.15
2018-05-02T19:01:25.151Z,100775.72
2018-05-02T19:03:51.069Z,100778.11
2018-05-02T19:06:16.913Z,100766.30
2018-05-02T19:08:42.813Z,100761.81
2018-05-02T19:11:08.808Z,100763.95
2018-05-02T19:13:40.863Z,100764.89
2018-05-02T19:16:06.726Z,100764.69
2018-05-02T19:18:38.885Z,100774.84
2018-05-02T19:21:04.694Z,100776.55
2018-05-02T19:23:30.551Z,100784.48
2018-05-02T19:26:02.682Z,100778.01
2018-05-02T19:28:28.561Z,100774.89
2018-05-02T19:31:00.463Z,100777.27
2018-05-02T19:33:32.388Z,100781.81
2018-05-02T19:35:58.274Z,100780.67
2018-05-02T19:38:24.148Z,100778.03
2018-05-02T19:40:56.143Z,100777.84
2018-05-02T19:43:28.073Z,100768.22
2018-05-02T19:45:53.940Z,100765.66
2018-05-02T19:48:19.841Z,100763.00
2018-05-02T19:50:51.833Z,100762.59
2018-05-02T19:53:17.775Z,100756.00
2018-05-02T19:55:44.050Z,100758.73
2018-05-02T19:58:09.908Z,100761.97
2018-05-02T20:00:41.943Z,100756.07
2018-05-02T20:03:07.866Z,100759.23
2018-05-02T20:05:33.777Z,100747.70
2018-05-02T20:07:59.638Z,100744.66
2018-05-02T20:10:31.670Z,100746.88
2018-05-02T20:13:03.695Z,100747.59
2018-05-02T20:15:29.618Z,100755.16
2018-05-02T20:17:55.519Z,100747.17
2018-05-02T20:20:21.435Z,100750.02
2018-05-02T20:22:47.287Z,100740.11
2018-05-02T20:25:13.199Z,100738.48
2018-05-02T20:27:39.051Z,100730.19
2018-05-02T20:30:04.911Z,100728.59
2018-05-02T20:32:30.806Z,100729.61
2018-05-02T20:34:56.656Z,100724.48
2018-05-02T20:37:22.544Z,100726.94
2018-05-02T20:39:48.437Z,100730.66
2018-05-02T20:42:14.297Z,100723.39
2018-05-02T20:44:40.144Z,100727.02
2018-05-02T20:47:06.036Z,100732.90
2018-05-02T20:49:31.886Z,100740.50
2018-05-02T20:51:57.823Z,100741.57
2018-05-02T20:54:23.735Z,100731.05
2018-05-02T20:56:49.582Z,100724.96
2018-05-02T20:59:15.456Z,100712.44
2018-05-02T21:01:41.342Z,100700.26
2018-05-02T21:04:07.208Z,100694.28
2018-05-02T21:06:33.103Z,100687.46
2018-05-02T21:08:59.059Z,100687.54
2018-05-02T21:11:24.911Z,100678.35
2018-05-02T21:13:50.772Z,100685.95
2018-05-02T21:16:16.654Z,100680.71
2018-05-02T21:18:42.507Z,100686.50
2018-05-02T21:21:08.375Z,100697.53
2018-05-02T21:23:34.269Z,100710.69
2018-05-02T21:26:00.124Z,100719.02
2018-05-02T21:28:25.971Z,100721.27
2018-05-02T21:30:51.910Z,100717.25
2018-05-02T21:33:17.731Z,100715.95
2018-05-02T21:35:43.587Z,100718.00
2018-05-02T21:38:09.503Z,100707.81
2018-05-02T21:40:35.386Z,100695.89
2018-05-02T21:43:01.215Z,100698.46
2018-05-02T21:45:27.113Z,100687.90
2018-05-02T21:47:53.146Z,100681.74
2018-05-02T21:50:18.921Z,100686.14
2018-05-02T21:52:44.825Z,100687.78
2018-05-02T21:55:10.696Z,100686.14
2018-05-02T21:57:36.548Z,100681.84
2018-05-02T22:00:02.459Z,100684.59
2018-05-02T22:02:28.317Z,100696.97
2018-05-02T22:04:54.171Z,100680.44
2018-05-02T22:07:20.132Z,100670.50
2018-05-02T22:09:45.972Z,100663.61
2018-05-02T22:12:11.823Z,100669.91
2018-05-02T22:14:37.728Z,100669.57
2018-05-02T22:17:03.582Z,100669.70
2018-05-02T22:19:29.448Z,100666.70
2018-05-02T22:21:55.343Z,100660.09
2018-05-02T22:24:21.186Z,100661.88
2018-05-02T22:26:47.062Z,100662.83
2018-05-02T22:29:12.957Z,100659.72
2018-05-02T22:31:38.810Z,100662.41
2018-05-02T22:34:04.736Z,100651.73
2018-05-02T22:36:30.630Z,100643.86
2018-05-02T22:38:56.490Z,100634.59
2018-05-02T22:41:22.453Z,100630.08
2018-05-02T22:43:48.331Z,100636.82
2018-05-02T22:46:14.174Z,100646.27
2018-05-02T22:48:40.080Z,100657.59
2018-05-02T22:51:05.983Z,100663.13
2018-05-02T22:53:31.847Z,100668.51
2018-05-02T22:55:57.756Z,100669.92
2018-05-02T22:58:23.665Z,100677.45
2018-05-02T23:00:49.531Z,100684.58
2018-05-02T23:03:15.393Z,100702.42
2018-05-02T23:05:41.275Z,100697.55
2018-05-02T23:08:07.166Z,100697.13
2018-05-02T23:10:33.022Z,100692.77
2018-05-02T23:12:58.918Z,100684.41
2018-05-02T23:15:24.783Z,100692.88
2018-05-02T23:17:50.671Z,100686.09
2018-05-02T23:20:16.575Z,100673.42
2018-05-02T23:22:42.426Z,100660.47
2018-05-02T23:25:08.275Z,100655.22
2018-05-02T23:27:34.162Z,100652.75
2018-05-02T23:30:00.029Z,100648.42
2018-05-02T23:32:25.984Z,100642.16
2018-05-02T23:34:51.892Z,100637.31
2018-05-02T23:37:17.748Z,100633.43
2018-05-02T23:39:43.615Z,100622.09
2018-05-02T23:42:09.544Z,100613.02
2018-05-02T23:44:35.418Z,100614.22
2018-05-02T23:47:01.301Z,100607.31
2018-05-02T23:49:27.213Z,100600.73
2018-05-02T23:51:53.065Z,100608.50
2018-05-02T23:54:18.945Z,100607.18
2018-05-02T23:56:44.841Z,100616.87
2018-05-02T23:59:10.736Z,100622.12
